createdAt,value
2018-09-21T00:00:57.264Z,7.65
2018-09-21T00:03:26.321Z,8.30
2018-09-21T00:05:54.662Z,7.70
2018-09-21T00:08:23.266Z,9.43
2018-09-21T00:10:52.086Z,7.05
2018-09-21T00:13:20.483Z,8.57
2018-09-21T00:15:48.841Z,12.27
2018-09-21T00:18:17.207Z,7.18
2018-09-21T00:20:45.849Z,7.12
2018-09-21T00:23:14.877Z,10.60
2018-09-21T00:25:43.312Z,11.10
2018-09-21T00:28:12.079Z,7.53
2018-09-21T00:30:40.430Z,10.00
2018-09-21T00:33:08.829Z,11.45
2018-09-21T00:35:37.168Z,10.85
2018-09-21T00:38:06.105Z,7.65
2018-09-21T00:40:34.457Z,9.90
2018-09-21T00:43:03.055Z,10.25
2018-09-21T00:45:31.405Z,12.48
2018-09-21T00:48:00.620Z,10.45
2018-09-21T00:50:28.951Z,15.02
2018-09-21T00:52:57.312Z,13.40
2018-09-21T00:55:25.653Z,11.43
2018-09-21T00:57:54.025Z,14.98
2018-09-21T01:00:22.417Z,11.98
2018-09-21T01:02:51.116Z,10.63
2018-09-21T01:05:19.511Z,10.48
2018-09-21T01:07:47.928Z,10.32
2018-09-21T01:10:16.282Z,13.07
2018-09-21T01:12:44.620Z,5.75
2018-09-21T01:15:13.088Z,8.70
2018-09-21T01:17:42.183Z,11.05
2018-09-21T01:20:10.544Z,9.30
2018-09-21T01:22:38.884Z,7.87
2018-09-21T01:25:07.332Z,9.77
2018-09-21T01:27:35.698Z,5.60
2018-09-21T01:30:04.038Z,9.25
2018-09-21T01:32:32.377Z,6.37
2018-09-21T01:35:00.726Z,13.10
2018-09-21T01:37:29.832Z,8.57
2018-09-21T01:39:58.167Z,9.65
2018-09-21T01:42:26.504Z,11.48
2018-09-21T01:44:54.840Z,10.48
2018-09-21T01:47:23.273Z,6.62
2018-09-21T01:49:51.590Z,7.22
2018-09-21T01:52:20.039Z,10.00
2018-09-21T01:54:48.364Z,8.15
2018-09-21T01:57:16.694Z,8.48
2018-09-21T01:59:45.045Z,12.37
2018-09-21T02:02:13.373Z,10.65
2018-09-21T02:04:41.726Z,10.60
2018-09-21T02:07:10.077Z,10.38
2018-09-21T02:09:39.187Z,8.88
2018-09-21T02:12:08.282Z,8.73
2018-09-21T02:14:36.714Z,8.55
2018-09-21T02:17:05.037Z,9.23
2018-09-21T02:19:33.370Z,14.50
2018-09-21T02:22:02.568Z,8.70
2018-09-21T02:24:30.906Z,9.77
2018-09-21T02:26:59.238Z,11.25
2018-09-21T02:29:27.632Z,8.20
2018-09-21T02:31:56.718Z,10.30
2018-09-21T02:34:25.250Z,9.23
2018-09-21T02:36:53.582Z,10.70
2018-09-21T02:39:21.926Z,9.48
2018-09-21T02:41:50.252Z,9.48
2018-09-21T02:44:19.374Z,8.02
2018-09-21T02:46:47.727Z,8.45
2018-09-21T02:49:16.079Z,7.60
2018-09-21T02:51:44.437Z,9.48
2018-09-21T02:54:12.772Z,7.47
2018-09-21T02:56:41.148Z,13.25
2018-09-21T02:59:09.496Z,6.68
2018-09-21T03:01:37.903Z,10.25
2018-09-21T03:04:07.006Z,9.57
2018-09-21T03:06:35.369Z,9.07
2018-09-21T03:09:03.723Z,11.40
2018-09-21T03:11:32.081Z,7.43
2018-09-21T03:14:00.413Z,6.32
2018-09-21T03:16:28.801Z,6.87
2018-09-21T03:18:57.123Z,8.93
2018-09-21T03:21:25.579Z,8.88
2018-09-21T03:23:53.887Z,9.88
2018-09-21T03:26:22.239Z,7.00
2018-09-21T03:28:50.595Z,11.10
2018-09-21T03:31:18.951Z,9.10
2018-09-21T03:33:47.289Z,10.35
2018-09-21T03:36:15.764Z,7.90
2018-09-21T03:38:44.099Z,8.02
2018-09-21T03:41:13.333Z,7.93
2018-09-21T03:43:42.280Z,7.15
2018-09-21T03:46:10.886Z,7.87
2018-09-21T03:48:39.281Z,8.07
2018-09-21T03:51:07.646Z,9.15
2018-09-21T03:53:35.979Z,9.88
2018-09-21T03:56:04.332Z,9.07
2018-09-21T03:58:32.683Z,10.35
2018-09-21T04:01:01.216Z,9.75
2018-09-21T04:03:29.553Z,9.27
2018-09-21T04:05:57.918Z,8.73
2018-09-21T04:08:26.254Z,9.40
2018-09-21T04:10:54.590Z,7.28
2018-09-21T04:13:22.939Z,13.95
2018-09-21T04:15:52.047Z,8.20
2018-09-21T04:18:21.146Z,10.85
2018-09-21T04:20:49.482Z,9.85
2018-09-21T04:23:17.920Z,10.07
2018-09-21T04:25:46.438Z,8.65
2018-09-21T04:28:14.764Z,9.18
2018-09-21T04:30:43.870Z,14.57
2018-09-21T04:33:12.973Z,7.70
2018-09-21T04:35:41.430Z,9.02
2018-09-21T04:38:10.661Z,8.95
2018-09-21T04:40:39.032Z,8.40
2018-09-21T04:43:07.358Z,11.10
2018-09-21T04:45:35.764Z,8.88
2018-09-21T04:48:04.096Z,11.12
2018-09-21T04:50:32.420Z,9.32
2018-09-21T04:53:01.590Z,9.05
2018-09-21T04:55:30.027Z,8.80
2018-09-21T04:57:58.440Z,9.25
2018-09-21T05:00:27.366Z,8.18
2018-09-21T05:02:56.560Z,11.12
2018-09-21T05:05:25.024Z,10.05
2018-09-21T05:07:54.086Z,10.25
2018-09-21T05:10:22.418Z,8.38
2018-09-21T05:12:50.766Z,12.55
2018-09-21T05:15:19.112Z,10.30
2018-09-21T05:17:47.598Z,8.07
2018-09-21T05:20:15.948Z,8.55
2018-09-21T05:22:45.072Z,11.07
2018-09-21T05:25:13.414Z,10.07
2018-09-21T05:27:42.568Z,8.70
2018-09-21T05:30:11.651Z,7.00
2018-09-21T05:32:40.014Z,8.05
2018-09-21T05:35:08.382Z,8.98
2018-09-21T05:37:36.704Z,8.63
2018-09-21T05:40:05.966Z,11.38
2018-09-21T05:42:34.402Z,7.60
2018-09-21T05:45:02.753Z,9.02
2018-09-21T05:47:32.865Z,9.25
2018-09-21T05:50:01.222Z,10.63
2018-09-21T05:52:29.560Z,9.02
2018-09-21T05:54:57.933Z,10.43
2018-09-21T05:57:26.276Z,9.57
2018-09-21T05:59:54.631Z,9.25
2018-09-21T06:02:23.768Z,8.18
2018-09-21T06:04:53.426Z,8.70
2018-09-21T06:07:22.534Z,10.38
2018-09-21T06:09:52.088Z,9.05
2018-09-21T06:12:20.439Z,9.90
2018-09-21T06:14:48.853Z,8.70
2018-09-21T06:17:17.176Z,12.68
2018-09-21T06:19:46.319Z,17.65
2018-09-21T06:22:14.622Z,12.52
2018-09-21T06:24:43.199Z,26.92
2018-09-21T06:27:11.498Z,22.58
2018-09-21T06:29:40.722Z,19.35
2018-09-21T06:32:09.147Z,17.42
2018-09-21T06:34:37.473Z,19.35
2018-09-21T06:37:06.593Z,21.87
2018-09-21T06:39:34.915Z,10.13
2018-09-21T06:42:03.265Z,15.95
2018-09-21T06:44:32.310Z,25.25
2018-09-21T06:47:00.650Z,16.60
2018-09-21T06:49:28.995Z,19.55
2018-09-21T06:51:57.375Z,11.10
2018-09-21T06:54:25.709Z,12.18
2018-09-21T06:56:54.057Z,12.15
2018-09-21T06:59:22.390Z,16.20
2018-09-21T07:01:50.837Z,12.02
2018-09-21T07:04:19.237Z,14.13
2018-09-21T07:06:48.369Z,6.80
2018-09-21T07:09:16.757Z,11.57
2018-09-21T07:11:45.105Z,13.95
2018-09-21T07:14:13.462Z,12.10
2018-09-21T07:16:42.712Z,11.57
2018-09-21T07:19:11.151Z,13.38
2018-09-21T07:21:40.381Z,12.98
2018-09-21T07:24:08.758Z,11.80
2018-09-21T07:26:37.219Z,10.00
2018-09-21T07:29:05.511Z,8.77
2018-09-21T07:31:33.859Z,16.98
2018-09-21T07:34:02.292Z,20.20
2018-09-21T07:36:30.641Z,16.80
2018-09-21T07:38:59.819Z,16.45
2018-09-21T07:41:28.777Z,10.63
2018-09-21T07:43:57.103Z,10.68
2018-09-21T07:46:26.267Z,9.80
2018-09-21T07:48:54.684Z,15.52
2018-09-21T07:51:23.115Z,15.07
2018-09-21T07:53:51.427Z,18.62
2018-09-21T07:56:20.284Z,11.25
2018-09-21T07:58:49.191Z,9.85
2018-09-21T08:01:18.605Z,8.02
2018-09-21T08:03:46.939Z,8.55
2018-09-21T08:06:15.284Z,9.02
2018-09-21T08:08:44.380Z,9.27
2018-09-21T08:11:13.629Z,13.57
2018-09-21T08:13:41.985Z,14.23
2018-09-21T08:16:11.313Z,15.27
2018-09-21T08:18:39.632Z,11.38
2018-09-21T08:21:08.763Z,9.30
2018-09-21T08:23:37.089Z,9.57
2018-09-21T08:26:05.419Z,7.10
2018-09-21T08:28:33.787Z,11.00
2018-09-21T08:31:02.187Z,8.30
2018-09-21T08:33:30.549Z,7.95
2018-09-21T08:35:58.874Z,9.70
2018-09-21T08:38:27.220Z,11.52
2018-09-21T08:40:55.577Z,7.87
2018-09-21T08:43:24.797Z,10.02
2018-09-21T08:45:53.129Z,9.32
2018-09-21T08:48:21.471Z,12.18
2018-09-21T08:50:50.451Z,10.15
2018-09-21T08:53:18.807Z,9.90
2018-09-21T08:55:47.135Z,17.17
2018-09-21T08:58:15.501Z,7.35
2018-09-21T09:00:43.847Z,7.75
2018-09-21T09:03:12.376Z,8.30
2018-09-21T09:05:40.641Z,13.00
2018-09-21T09:08:09.011Z,7.40
2018-09-21T09:10:37.391Z,8.23
2018-09-21T09:13:05.741Z,6.85
2018-09-21T09:15:34.192Z,14.77
2018-09-21T09:18:02.551Z,11.80
2018-09-21T09:20:31.843Z,8.35
2018-09-21T09:23:00.259Z,9.15
2018-09-21T09:25:28.649Z,9.90
2018-09-21T09:27:57.015Z,8.32
2018-09-21T09:30:25.779Z,7.43
2018-09-21T09:32:54.306Z,6.78
2018-09-21T09:35:22.635Z,6.97
2018-09-21T09:37:53.017Z,9.77
2018-09-21T09:40:22.353Z,11.60
2018-09-21T09:42:50.725Z,6.78
2018-09-21T09:45:19.084Z,8.77
2018-09-21T09:47:47.460Z,5.32
2018-09-21T09:50:15.977Z,6.78
2018-09-21T09:52:44.310Z,6.35
2018-09-21T09:55:13.422Z,7.80
2018-09-21T09:57:41.768Z,8.25
2018-09-21T10:00:10.108Z,7.87
2018-09-21T10:02:38.560Z,8.63
2018-09-21T10:10:49.482Z,8.57
2018-09-21T10:13:17.801Z,8.40
2018-09-21T10:15:46.200Z,5.95
2018-09-21T10:18:15.350Z,12.32
2018-09-21T10:20:43.761Z,7.65
2018-09-21T10:23:12.032Z,10.43
2018-09-21T10:25:40.407Z,12.20
2018-09-21T10:28:08.960Z,9.75
2018-09-21T10:30:37.172Z,7.60
2018-09-21T10:33:05.518Z,7.65
2018-09-21T10:35:33.995Z,7.62
2018-09-21T10:38:02.256Z,6.40
2018-09-21T10:40:30.661Z,5.97
2018-09-21T10:43:00.738Z,8.75
2018-09-21T10:45:29.029Z,7.28
2018-09-21T10:47:57.406Z,6.05
2018-09-21T10:50:25.813Z,7.05
2018-09-21T10:52:54.180Z,12.13
2018-09-21T10:55:22.517Z,11.25
2018-09-21T10:57:51.617Z,12.25
2018-09-21T11:00:20.746Z,6.82
2018-09-21T11:02:49.068Z,8.27
2018-09-21T11:05:17.491Z,8.15
2018-09-21T11:07:46.837Z,10.85
2018-09-21T11:10:16.230Z,7.47
2018-09-21T11:12:44.721Z,6.32
2018-09-21T11:15:13.623Z,5.00
2018-09-21T11:17:42.166Z,7.10
2018-09-21T11:20:10.501Z,7.15
2018-09-21T11:22:39.584Z,6.78
2018-09-21T11:25:07.906Z,5.03
2018-09-21T11:27:36.301Z,4.95
2018-09-21T11:30:04.773Z,5.27
2018-09-21T11:32:33.154Z,4.93
2018-09-21T11:35:01.488Z,5.73
2018-09-21T11:37:30.021Z,8.73
2018-09-21T11:39:58.525Z,4.50
2018-09-21T11:42:26.835Z,5.33
2018-09-21T11:44:55.255Z,5.60
2018-09-21T11:47:23.739Z,4.73
2018-09-21T11:49:51.939Z,6.83
2018-09-21T11:52:20.504Z,6.47
2018-09-21T11:54:49.586Z,5.43
2018-09-21T11:57:17.920Z,9.10
2018-09-21T11:59:46.240Z,6.03
2018-09-21T12:02:15.375Z,5.83
2018-09-21T12:04:43.823Z,5.33
2018-09-21T12:07:12.146Z,7.00
2018-09-21T12:09:41.248Z,11.97
2018-09-21T12:12:09.649Z,8.60
2018-09-21T12:14:38.071Z,6.63
2018-09-21T12:17:06.482Z,7.53
2018-09-21T12:19:34.746Z,5.53
2018-09-21T12:22:03.120Z,8.63
2018-09-21T12:24:31.428Z,11.80
2018-09-21T12:26:59.862Z,6.77
2018-09-21T12:29:28.226Z,5.10
2018-09-21T12:31:57.535Z,6.53
2018-09-21T12:34:25.890Z,5.70
2018-09-21T12:36:54.280Z,8.23
2018-09-21T12:39:23.374Z,4.47
2018-09-21T12:41:52.461Z,6.57
2018-09-21T12:44:21.564Z,6.80
2018-09-21T12:46:50.667Z,5.70
2018-09-21T12:49:19.821Z,5.33
2018-09-21T12:51:48.152Z,6.77
2018-09-21T12:54:16.505Z,5.43
2018-09-21T12:56:44.852Z,6.47
2018-09-21T12:59:13.948Z,7.73
2018-09-21T13:01:42.370Z,6.43
2018-09-21T13:04:10.698Z,8.00
2018-09-21T13:06:39.304Z,6.30
2018-09-21T13:09:08.416Z,6.87
2018-09-21T13:11:36.758Z,7.90
2018-09-21T13:14:05.110Z,7.13
2018-09-21T13:16:33.442Z,6.87
2018-09-21T13:19:01.936Z,7.87
2018-09-21T13:21:30.272Z,8.60
2018-09-21T13:23:58.611Z,5.40
2018-09-21T13:26:27.694Z,5.53
2018-09-21T13:28:56.046Z,8.77
2018-09-21T13:31:24.380Z,4.83
2018-09-21T13:33:52.740Z,10.23
2018-09-21T13:36:21.838Z,7.90
2018-09-21T13:38:50.958Z,7.00
2018-09-21T13:41:19.297Z,8.50
2018-09-21T13:43:47.664Z,8.27
2018-09-21T13:46:16.021Z,5.87
2018-09-21T13:48:44.354Z,8.20
2018-09-21T13:51:13.265Z,5.23
2018-09-21T13:53:41.583Z,10.47
2018-09-21T13:56:09.941Z,8.00
2018-09-21T13:58:38.353Z,6.17
2018-09-21T14:01:06.763Z,5.87
2018-09-21T14:03:35.103Z,5.53
2018-09-21T14:06:03.436Z,6.53
2018-09-21T14:08:31.768Z,4.80
2018-09-21T14:11:00.124Z,6.93
2018-09-21T14:13:28.465Z,5.83
2018-09-21T14:15:56.811Z,7.47
2018-09-21T14:18:25.155Z,7.03
2018-09-21T14:20:53.500Z,6.77
2018-09-21T14:23:21.861Z,6.70
2018-09-21T14:25:50.978Z,6.23
2018-09-21T14:28:19.364Z,7.13
2018-09-21T14:30:47.756Z,7.00
2018-09-21T14:33:16.079Z,7.67
2018-09-21T14:35:44.786Z,6.97
2018-09-21T14:38:13.826Z,5.37
2018-09-21T14:40:42.258Z,7.20
2018-09-21T14:43:11.561Z,7.30
2018-09-21T14:45:39.904Z,7.67
2018-09-21T14:48:08.334Z,12.03
2018-09-21T14:50:36.819Z,7.63
2018-09-21T14:53:05.192Z,10.93
2018-09-21T14:55:33.611Z,7.07
2018-09-21T14:58:02.596Z,7.57
2018-09-21T15:00:30.929Z,9.40
2018-09-21T15:03:00.053Z,9.03
2018-09-21T15:05:28.380Z,8.57
2018-09-21T15:07:56.779Z,8.07
2018-09-21T15:13:00.880Z,9.27
2018-09-21T15:15:29.270Z,10.20
2018-09-21T15:17:57.622Z,5.87
2018-09-21T15:20:26.128Z,7.37
2018-09-21T15:22:54.446Z,8.23
2018-09-21T15:25:22.970Z,10.20
2018-09-21T15:27:51.315Z,7.30
2018-09-21T15:30:19.753Z,5.90
2018-09-21T15:32:48.102Z,6.03
2018-09-21T15:35:16.560Z,7.87
2018-09-21T15:37:45.127Z,9.67
2018-09-21T15:40:14.482Z,5.73
2018-09-21T15:42:42.860Z,4.70
2018-09-21T15:45:11.256Z,5.40
2018-09-21T15:47:39.819Z,7.17
2018-09-21T15:50:08.200Z,8.87
2018-09-21T15:52:36.706Z,5.57
2018-09-21T15:55:05.040Z,4.80
2018-09-21T15:57:33.375Z,5.87
2018-09-21T16:00:02.486Z,4.93
2018-09-21T16:02:31.702Z,6.47
2018-09-21T16:05:00.048Z,4.13
2018-09-21T16:07:28.368Z,5.70
2018-09-21T16:09:56.769Z,7.53
2018-09-21T16:12:25.074Z,3.97
2018-09-21T16:14:53.512Z,5.00
2018-09-21T16:17:21.838Z,5.67
2018-09-21T16:19:50.359Z,3.50
2018-09-21T16:22:18.685Z,4.63
2018-09-21T16:24:47.098Z,2.53
2018-09-21T16:27:16.191Z,3.67
2018-09-21T16:29:45.282Z,6.10
2018-09-21T16:32:13.632Z,4.20
2018-09-21T16:34:41.965Z,2.70
2018-09-21T16:37:10.402Z,3.20
2018-09-21T16:39:38.720Z,4.03
2018-09-21T16:42:07.297Z,2.97
2018-09-21T16:44:36.387Z,6.03
2018-09-21T16:47:05.100Z,6.53
2018-09-21T16:49:33.418Z,5.50
2018-09-21T16:52:01.781Z,3.43
2018-09-21T16:54:30.135Z,3.27
2018-09-21T16:56:58.455Z,1.83
2018-09-21T16:59:26.973Z,3.90
2018-09-21T17:01:56.072Z,3.10
2018-09-21T17:04:25.229Z,4.17
2018-09-21T17:06:53.682Z,4.00
2018-09-21T17:09:22.005Z,4.10
2018-09-21T17:11:50.330Z,3.30
2018-09-21T17:14:19.760Z,6.57
2018-09-21T17:16:48.087Z,3.27
2018-09-21T17:19:17.331Z,3.10
2018-09-21T17:21:46.158Z,6.13
2018-09-21T17:24:14.482Z,3.83
2018-09-21T17:26:42.908Z,2.10
2018-09-21T17:29:11.219Z,5.73
2018-09-21T17:31:40.657Z,3.37
2018-09-21T17:34:08.872Z,3.67
2018-09-21T17:36:37.218Z,4.47
2018-09-21T17:39:05.680Z,5.00
2018-09-21T17:41:34.032Z,4.50
2018-09-21T17:44:02.349Z,4.60
2018-09-21T17:46:30.693Z,2.57
2018-09-21T17:48:59.054Z,2.50
2018-09-21T17:51:28.310Z,1.90
2018-09-21T17:53:56.626Z,2.87
2018-09-21T17:56:25.128Z,3.20
2018-09-21T17:58:54.236Z,4.30
2018-09-21T18:01:22.602Z,3.03
2018-09-21T18:03:51.098Z,4.77
2018-09-21T18:06:19.480Z,2.77
2018-09-21T18:08:47.853Z,4.60
2018-09-21T18:11:16.220Z,4.73
2018-09-21T18:13:45.324Z,2.00
2018-09-21T18:16:14.555Z,2.23
2018-09-21T18:18:42.911Z,6.43
2018-09-21T18:21:11.282Z,3.80
2018-09-21T18:23:39.594Z,7.23
2018-09-21T18:26:08.095Z,3.07
2018-09-21T18:28:36.395Z,7.33
2018-09-21T18:31:04.719Z,4.73
2018-09-21T18:33:33.084Z,5.37
2018-09-21T18:36:01.542Z,3.83
2018-09-21T18:38:29.850Z,3.90
2018-09-21T18:40:58.248Z,4.40
2018-09-21T18:43:26.528Z,4.50
2018-09-21T18:45:54.910Z,4.03
2018-09-21T18:48:23.250Z,3.60
2018-09-21T18:50:51.604Z,4.07
2018-09-21T18:53:20.004Z,3.93
2018-09-21T18:55:48.446Z,2.07
2018-09-21T18:58:16.775Z,4.17
2018-09-21T19:00:45.152Z,6.77
2018-09-21T19:03:13.796Z,4.47
2018-09-21T19:05:42.380Z,2.90
2018-09-21T19:08:10.714Z,6.37
2018-09-21T19:10:39.289Z,5.47
2018-09-21T19:13:07.623Z,4.30
2018-09-21T19:15:36.102Z,3.27
2018-09-21T19:18:04.464Z,3.27
2018-09-21T19:20:32.808Z,3.03
2018-09-21T19:23:01.474Z,4.03
2018-09-21T19:25:31.890Z,3.83
2018-09-21T19:28:00.718Z,4.20
2018-09-21T19:30:29.660Z,6.37
2018-09-21T19:32:58.126Z,4.97
2018-09-21T19:35:26.429Z,3.13
2018-09-21T19:37:55.005Z,5.57
2018-09-21T19:40:23.556Z,5.17
2018-09-21T19:42:52.107Z,3.97
2018-09-21T19:45:21.736Z,4.97
2018-09-21T19:47:50.715Z,3.13
2018-09-21T19:50:19.223Z,5.40
2018-09-21T19:52:47.733Z,3.07
2018-09-21T19:55:16.203Z,2.90
2018-09-21T19:57:45.408Z,2.47
2018-09-21T20:00:13.834Z,1.90
2018-09-21T20:02:42.462Z,4.53
2018-09-21T20:05:10.969Z,4.67
2018-09-21T20:07:39.392Z,5.73
2018-09-21T20:10:08.084Z,3.17
2018-09-21T20:12:36.977Z,2.27
2018-09-21T20:15:05.558Z,3.77
2018-09-21T20:17:33.932Z,3.00
2018-09-21T20:20:02.320Z,3.67
2018-09-21T20:22:30.770Z,1.10
2018-09-21T20:24:59.192Z,1.80
2018-09-21T20:27:28.037Z,4.40
2018-09-21T20:29:57.188Z,1.80
2018-09-21T20:32:31.562Z,1.67
2018-09-21T20:34:59.892Z,1.47
2018-09-21T20:37:28.229Z,1.10
2018-09-21T20:39:57.374Z,2.07
2018-09-21T20:42:25.658Z,3.63
2018-09-21T20:44:54.463Z,1.13
2018-09-21T20:47:23.572Z,0.90
2018-09-21T20:49:52.751Z,2.50
2018-09-21T20:52:21.114Z,1.50
2018-09-21T20:54:49.466Z,3.40
2018-09-21T20:57:17.800Z,2.60
2018-09-21T20:59:46.572Z,4.13
2018-09-21T21:02:14.882Z,1.43
2018-09-21T21:04:43.214Z,1.90
2018-09-21T21:07:11.608Z,2.23
2018-09-21T21:09:39.950Z,0.90
2018-09-21T21:12:08.302Z,1.87
2018-09-21T21:14:36.636Z,1.63
2018-09-21T21:17:04.973Z,1.37
2018-09-21T21:19:35.616Z,2.83
2018-09-21T21:22:03.950Z,2.07
2018-09-21T21:24:33.232Z,2.33
2018-09-21T21:27:01.562Z,2.37
2018-09-21T21:29:29.910Z,4.33
2018-09-21T21:31:58.420Z,2.30
2018-09-21T21:34:26.774Z,2.67
2018-09-21T21:36:55.894Z,3.17
2018-09-21T21:39:24.833Z,4.30
2018-09-21T21:41:53.274Z,2.67
2018-09-21T21:44:21.708Z,4.63
2018-09-21T21:46:50.032Z,2.67
2018-09-21T21:49:18.401Z,3.27
2018-09-21T21:51:46.745Z,3.33
2018-09-21T21:54:15.180Z,3.33
2018-09-21T21:56:43.558Z,4.30
2018-09-21T21:59:11.921Z,4.73
2018-09-21T22:01:43.819Z,4.00
2018-09-21T22:04:12.283Z,1.43
2018-09-21T22:06:40.622Z,1.40
2018-09-21T22:09:09.031Z,2.80
2018-09-21T22:11:37.382Z,2.53
2018-09-21T22:14:06.480Z,4.67
2018-09-21T22:16:34.860Z,1.50
2018-09-21T22:19:04.806Z,3.37
2018-09-21T22:21:34.180Z,2.07
2018-09-21T22:24:02.560Z,4.77
2018-09-21T22:26:30.890Z,4.30
2018-09-21T22:28:59.933Z,3.57
2018-09-21T22:31:29.241Z,4.47
2018-09-21T22:33:57.589Z,3.30
2018-09-21T22:36:26.001Z,2.87
2018-09-21T22:38:54.332Z,2.63
2018-09-21T22:41:23.951Z,2.83
2018-09-21T22:43:53.178Z,1.10
2018-09-21T22:46:21.549Z,4.27
2018-09-21T22:48:50.144Z,3.30
2018-09-21T22:51:18.488Z,2.40
2018-09-21T22:53:47.132Z,2.83
2018-09-21T22:56:16.289Z,2.70
2018-09-21T22:58:44.877Z,3.37
2018-09-21T23:01:13.188Z,4.13
2018-09-21T23:03:41.966Z,3.33
2018-09-21T23:06:11.554Z,5.80
2018-09-21T23:08:41.253Z,3.10
2018-09-21T23:11:09.670Z,3.33
2018-09-21T23:13:38.042Z,3.80
2018-09-21T23:16:06.413Z,4.27
2018-09-21T23:18:34.847Z,4.53
2018-09-21T23:21:03.257Z,4.90
2018-09-21T23:23:31.598Z,5.40
2018-09-21T23:26:00.874Z,3.50
2018-09-21T23:28:29.196Z,4.97
2018-09-21T23:30:57.538Z,5.97
2018-09-21T23:33:25.897Z,4.20
2018-09-21T23:35:55.040Z,3.27
2018-09-21T23:38:23.465Z,4.67
2018-09-21T23:40:52.574Z,5.63
2018-09-21T23:43:21.577Z,5.00
2018-09-21T23:45:49.886Z,5.27
2018-09-21T23:48:18.233Z,5.93
2018-09-21T23:50:46.571Z,4.17
2018-09-21T23:53:15.080Z,5.33
2018-09-21T23:55:44.160Z,7.00
2018-09-21T23:58:13.276Z,6.03
